Murphy, Texas
Current Conditions -  °F | °C
As of 11:51 AM on Saturday 20 Dec 2014 (Local Time) from KADS Reporting Station
Haze Haze  
Wind Chill: 45°   Ceiling: 900
Heat Index: 45°   Visibility: 2.5mi
Dew Point: 43°   Wind: 3mph
Humidity: 93%   Direction: 30°NNE
Pressure: 30.25"   Gusts: NA
Location:  33.0274°N, 96.6714°W
Report Text: KADS 201751Z 03003KT 2 1/2SM BR OVC009 07/06 A3025
Loading
Personal Weather Stations






























Interactive Weather Map New forecast layout! Learn more

10-Day Weather Forecast

Advertisements
Track Severe Weather on mobile